sensor_id;sensor_type;location;lat;lon;timestamp;P1;durP1;ratioP1;P2;durP2;ratioP2
18695;SDS011;22617;43.690;27.956;2023-07-31T00:02:14;5.75;;;2.92;;
18695;SDS011;22617;43.690;27.956;2023-07-31T00:07:17;2.95;;;2.67;;
18695;SDS011;22617;43.690;27.956;2023-07-31T00:12:21;2.90;;;2.60;;
18695;SDS011;22617;43.690;27.956;2023-07-31T00:17:27;7.78;;;3.20;;
18695;SDS011;22617;43.690;27.956;2023-07-31T00:22:30;4.95;;;2.80;;
18695;SDS011;22617;43.690;27.956;2023-07-31T00:27:34;3.92;;;2.53;;
18695;SDS011;22617;43.690;27.956;2023-07-31T00:32:40;4.95;;;3.30;;
18695;SDS011;22617;43.690;27.956;2023-07-31T00:37:44;5.65;;;3.60;;
18695;SDS011;22617;43.690;27.956;2023-07-31T00:42:47;4.13;;;3.25;;
18695;SDS011;22617;43.690;27.956;2023-07-31T00:47:52;5.15;;;3.92;;
18695;SDS011;22617;43.690;27.956;2023-07-31T00:52:58;4.72;;;3.42;;
18695;SDS011;22617;43.690;27.956;2023-07-31T00:58:02;5.32;;;3.90;;
18695;SDS011;22617;43.690;27.956;2023-07-31T01:03:07;4.38;;;3.88;;
18695;SDS011;22617;43.690;27.956;2023-07-31T01:08:12;5.28;;;3.47;;
18695;SDS011;22617;43.690;27.956;2023-07-31T01:13:22;5.38;;;3.88;;
18695;SDS011;22617;43.690;27.956;2023-07-31T01:18:27;5.22;;;3.33;;
18695;SDS011;22617;43.690;27.956;2023-07-31T01:23:45;4.80;;;3.50;;
18695;SDS011;22617;43.690;27.956;2023-07-31T01:29:13;6.43;;;3.72;;
18695;SDS011;22617;43.690;27.956;2023-07-31T01:34:23;5.47;;;3.83;;
18695;SDS011;22617;43.690;27.956;2023-07-31T01:39:27;5.10;;;3.50;;
18695;SDS011;22617;43.690;27.956;2023-07-31T01:44:32;5.03;;;3.35;;
18695;SDS011;22617;43.690;27.956;2023-07-31T01:49:38;7.07;;;3.35;;
18695;SDS011;22617;43.690;27.956;2023-07-31T01:54:42;4.00;;;3.30;;
18695;SDS011;22617;43.690;27.956;2023-07-31T01:59:47;4.78;;;3.92;;
18695;SDS011;22617;43.690;27.956;2023-07-31T02:04:50;5.45;;;3.65;;
18695;SDS011;22617;43.690;27.956;2023-07-31T02:09:54;5.72;;;4.07;;
18695;SDS011;22617;43.690;27.956;2023-07-31T02:14:59;4.40;;;3.40;;
18695;SDS011;22617;43.690;27.956;2023-07-31T02:20:06;4.93;;;3.55;;
18695;SDS011;22617;43.690;27.956;2023-07-31T02:25:11;6.03;;;3.90;;
18695;SDS011;22617;43.690;27.956;2023-07-31T02:30:16;5.22;;;3.72;;
18695;SDS011;22617;43.690;27.956;2023-07-31T02:35:20;4.53;;;3.58;;
18695;SDS011;22617;43.690;27.956;2023-07-31T02:40:23;6.30;;;3.75;;
18695;SDS011;22617;43.690;27.956;2023-07-31T02:45:28;5.13;;;3.30;;
18695;SDS011;22617;43.690;27.956;2023-07-31T02:50:31;5.35;;;3.85;;
18695;SDS011;22617;43.690;27.956;2023-07-31T02:55:35;7.63;;;4.00;;
18695;SDS011;22617;43.690;27.956;2023-07-31T03:00:42;4.47;;;3.05;;
18695;SDS011;22617;43.690;27.956;2023-07-31T03:05:46;4.82;;;3.38;;
18695;SDS011;22617;43.690;27.956;2023-07-31T03:10:50;5.40;;;3.85;;
18695;SDS011;22617;43.690;27.956;2023-07-31T03:15:55;4.72;;;3.70;;
18695;SDS011;22617;43.690;27.956;2023-07-31T03:20:59;5.78;;;4.10;;
18695;SDS011;22617;43.690;27.956;2023-07-31T03:26:05;5.30;;;3.90;;
18695;SDS011;22617;43.690;27.956;2023-07-31T03:31:10;5.72;;;3.63;;
18695;SDS011;22617;43.690;27.956;2023-07-31T03:36:14;4.63;;;3.65;;
18695;SDS011;22617;43.690;27.956;2023-07-31T03:41:18;4.07;;;3.53;;
18695;SDS011;22617;43.690;27.956;2023-07-31T03:46:23;6.47;;;3.80;;
18695;SDS011;22617;43.690;27.956;2023-07-31T03:51:27;8.13;;;4.18;;
18695;SDS011;22617;43.690;27.956;2023-07-31T03:56:30;8.23;;;4.88;;
18695;SDS011;22617;43.690;27.956;2023-07-31T04:01:38;5.10;;;3.70;;
18695;SDS011;22617;43.690;27.956;2023-07-31T04:06:42;6.00;;;3.88;;
18695;SDS011;22617;43.690;27.956;2023-07-31T04:11:45;5.07;;;3.47;;
18695;SDS011;22617;43.690;27.956;2023-07-31T04:16:51;5.22;;;3.78;;
18695;SDS011;22617;43.690;27.956;2023-07-31T04:21:55;8.38;;;4.35;;
18695;SDS011;22617;43.690;27.956;2023-07-31T04:26:58;6.43;;;4.13;;
18695;SDS011;22617;43.690;27.956;2023-07-31T04:32:04;5.43;;;3.38;;
18695;SDS011;22617;43.690;27.956;2023-07-31T04:37:08;7.13;;;3.50;;
18695;SDS011;22617;43.690;27.956;2023-07-31T04:42:11;6.28;;;3.95;;
18695;SDS011;22617;43.690;27.956;2023-07-31T04:47:16;10.50;;;3.80;;
18695;SDS011;22617;43.690;27.956;2023-07-31T04:52:19;8.77;;;3.97;;
18695;SDS011;22617;43.690;27.956;2023-07-31T04:57:23;5.75;;;4.22;;
18695;SDS011;22617;43.690;27.956;2023-07-31T05:02:28;6.85;;;4.88;;
18695;SDS011;22617;43.690;27.956;2023-07-31T05:07:31;7.78;;;5.32;;
18695;SDS011;22617;43.690;27.956;2023-07-31T05:12:35;7.25;;;5.75;;
18695;SDS011;22617;43.690;27.956;2023-07-31T05:17:40;6.00;;;5.40;;
18695;SDS011;22617;43.690;27.956;2023-07-31T05:22:43;6.13;;;5.53;;
18695;SDS011;22617;43.690;27.956;2023-07-31T05:27:47;7.50;;;5.80;;
18695;SDS011;22617;43.690;27.956;2023-07-31T05:32:52;11.00;;;5.88;;
18695;SDS011;22617;43.690;27.956;2023-07-31T05:37:55;6.60;;;5.82;;
18695;SDS011;22617;43.690;27.956;2023-07-31T05:42:59;6.75;;;5.22;;
18695;SDS011;22617;43.690;27.956;2023-07-31T05:48:04;8.38;;;5.38;;
18695;SDS011;22617;43.690;27.956;2023-07-31T05:53:08;7.70;;;5.20;;
18695;SDS011;22617;43.690;27.956;2023-07-31T05:58:12;5.35;;;4.70;;
18695;SDS011;22617;43.690;27.956;2023-07-31T06:03:17;6.97;;;5.30;;
18695;SDS011;22617;43.690;27.956;2023-07-31T06:08:20;6.57;;;5.28;;
18695;SDS011;22617;43.690;27.956;2023-07-31T06:13:24;6.80;;;5.97;;
18695;SDS011;22617;43.690;27.956;2023-07-31T06:18:29;6.93;;;5.55;;
18695;SDS011;22617;43.690;27.956;2023-07-31T06:23:32;6.60;;;4.95;;
18695;SDS011;22617;43.690;27.956;2023-07-31T06:28:36;7.30;;;5.30;;
18695;SDS011;22617;43.690;27.956;2023-07-31T06:33:41;5.20;;;4.70;;
18695;SDS011;22617;43.690;27.956;2023-07-31T06:38:44;6.50;;;4.88;;
18695;SDS011;22617;43.690;27.956;2023-07-31T06:43:48;5.07;;;4.38;;
18695;SDS011;22617;43.690;27.956;2023-07-31T06:48:53;5.65;;;4.88;;
18695;SDS011;22617;43.690;27.956;2023-07-31T06:53:56;5.93;;;5.07;;
18695;SDS011;22617;43.690;27.956;2023-07-31T06:59:00;7.78;;;4.70;;
18695;SDS011;22617;43.690;27.956;2023-07-31T07:04:05;4.82;;;4.32;;
18695;SDS011;22617;43.690;27.956;2023-07-31T07:09:08;4.05;;;3.47;;
18695;SDS011;22617;43.690;27.956;2023-07-31T07:14:12;4.53;;;4.10;;
18695;SDS011;22617;43.690;27.956;2023-07-31T07:19:17;4.30;;;3.90;;
18695;SDS011;22617;43.690;27.956;2023-07-31T07:24:20;5.50;;;4.22;;
18695;SDS011;22617;43.690;27.956;2023-07-31T07:29:24;4.95;;;4.25;;
18695;SDS011;22617;43.690;27.956;2023-07-31T07:34:29;4.75;;;3.92;;
18695;SDS011;22617;43.690;27.956;2023-07-31T07:39:32;4.43;;;3.80;;
18695;SDS011;22617;43.690;27.956;2023-07-31T07:44:36;5.00;;;3.95;;
18695;SDS011;22617;43.690;27.956;2023-07-31T07:49:41;4.60;;;4.20;;
18695;SDS011;22617;43.690;27.956;2023-07-31T07:54:51;4.57;;;4.13;;
18695;SDS011;22617;43.690;27.956;2023-07-31T07:59:55;6.18;;;3.90;;
18695;SDS011;22617;43.690;27.956;2023-07-31T08:05:00;6.03;;;4.43;;
18695;SDS011;22617;43.690;27.956;2023-07-31T08:10:04;6.20;;;3.78;;
18695;SDS011;22617;43.690;27.956;2023-07-31T08:15:09;8.38;;;4.20;;
18695;SDS011;22617;43.690;27.956;2023-07-31T08:20:14;3.80;;;3.40;;
18695;SDS011;22617;43.690;27.956;2023-07-31T08:25:18;6.43;;;4.32;;
18695;SDS011;22617;43.690;27.956;2023-07-31T08:30:21;4.55;;;3.80;;
18695;SDS011;22617;43.690;27.956;2023-07-31T08:35:26;6.00;;;3.95;;
18695;SDS011;22617;43.690;27.956;2023-07-31T08:40:31;4.43;;;3.92;;
18695;SDS011;22617;43.690;27.956;2023-07-31T08:45:34;5.65;;;3.83;;
18695;SDS011;22617;43.690;27.956;2023-07-31T08:50:39;4.05;;;3.65;;
18695;SDS011;22617;43.690;27.956;2023-07-31T08:55:43;5.07;;;4.10;;
18695;SDS011;22617;43.690;27.956;2023-07-31T09:00:47;4.28;;;3.88;;
18695;SDS011;22617;43.690;27.956;2023-07-31T09:05:56;5.15;;;3.95;;
18695;SDS011;22617;43.690;27.956;2023-07-31T09:11:01;4.60;;;3.75;;
18695;SDS011;22617;43.690;27.956;2023-07-31T09:16:07;5.15;;;4.57;;
18695;SDS011;22617;43.690;27.956;2023-07-31T09:21:13;4.88;;;3.90;;
18695;SDS011;22617;43.690;27.956;2023-07-31T09:26:28;4.70;;;4.20;;
18695;SDS011;22617;43.690;27.956;2023-07-31T09:31:33;3.65;;;3.28;;
18695;SDS011;22617;43.690;27.956;2023-07-31T09:36:43;4.55;;;3.55;;
18695;SDS011;22617;43.690;27.956;2023-07-31T09:41:53;3.67;;;3.38;;
18695;SDS011;22617;43.690;27.956;2023-07-31T09:46:57;3.97;;;3.42;;
18695;SDS011;22617;43.690;27.956;2023-07-31T09:52:02;4.60;;;3.33;;
18695;SDS011;22617;43.690;27.956;2023-07-31T09:57:14;5.80;;;3.38;;
18695;SDS011;22617;43.690;27.956;2023-07-31T10:02:22;10.80;;;4.57;;
18695;SDS011;22617;43.690;27.956;2023-07-31T10:07:27;4.18;;;3.33;;
18695;SDS011;22617;43.690;27.956;2023-07-31T10:12:33;5.13;;;3.60;;
18695;SDS011;22617;43.690;27.956;2023-07-31T10:17:37;3.65;;;3.22;;
18695;SDS011;22617;43.690;27.956;2023-07-31T10:22:42;4.07;;;3.28;;
18695;SDS011;22617;43.690;27.956;2023-07-31T10:27:47;5.82;;;3.40;;
18695;SDS011;22617;43.690;27.956;2023-07-31T10:32:52;5.65;;;3.85;;
18695;SDS011;22617;43.690;27.956;2023-07-31T10:37:58;5.30;;;3.55;;
18695;SDS011;22617;43.690;27.956;2023-07-31T10:43:23;6.13;;;3.47;;
18695;SDS011;22617;43.690;27.956;2023-07-31T10:48:32;5.18;;;3.60;;
18695;SDS011;22617;43.690;27.956;2023-07-31T10:53:39;4.97;;;4.07;;
18695;SDS011;22617;43.690;27.956;2023-07-31T10:58:43;4.18;;;3.42;;
18695;SDS011;22617;43.690;27.956;2023-07-31T11:03:48;4.53;;;3.50;;
18695;SDS011;22617;43.690;27.956;2023-07-31T11:08:56;5.38;;;3.60;;
18695;SDS011;22617;43.690;27.956;2023-07-31T11:13:59;6.53;;;3.63;;
18695;SDS011;22617;43.690;27.956;2023-07-31T11:19:02;4.50;;;3.42;;
18695;SDS011;22617;43.690;27.956;2023-07-31T11:24:13;4.18;;;3.70;;
18695;SDS011;22617;43.690;27.956;2023-07-31T11:29:16;4.53;;;3.33;;
18695;SDS011;22617;43.690;27.956;2023-07-31T11:34:20;6.82;;;3.90;;
18695;SDS011;22617;43.690;27.956;2023-07-31T11:39:25;4.18;;;3.30;;
18695;SDS011;22617;43.690;27.956;2023-07-31T11:44:37;6.70;;;3.15;;
18695;SDS011;22617;43.690;27.956;2023-07-31T11:49:41;3.42;;;3.08;;
18695;SDS011;22617;43.690;27.956;2023-07-31T11:54:46;4.50;;;3.10;;
18695;SDS011;22617;43.690;27.956;2023-07-31T11:59:50;4.95;;;3.38;;
18695;SDS011;22617;43.690;27.956;2023-07-31T12:04:54;3.55;;;3.13;;
18695;SDS011;22617;43.690;27.956;2023-07-31T12:09:59;4.50;;;3.67;;
18695;SDS011;22617;43.690;27.956;2023-07-31T12:15:13;5.60;;;4.30;;
18695;SDS011;22617;43.690;27.956;2023-07-31T12:20:18;4.75;;;3.70;;
18695;SDS011;22617;43.690;27.956;2023-07-31T12:25:25;3.78;;;3.30;;
18695;SDS011;22617;43.690;27.956;2023-07-31T12:30:32;7.70;;;3.88;;
18695;SDS011;22617;43.690;27.956;2023-07-31T12:35:37;4.88;;;3.58;;
18695;SDS011;22617;43.690;27.956;2023-07-31T12:40:44;5.25;;;4.25;;
18695;SDS011;22617;43.690;27.956;2023-07-31T12:45:48;4.57;;;4.00;;
18695;SDS011;22617;43.690;27.956;2023-07-31T12:50:52;5.75;;;4.70;;
18695;SDS011;22617;43.690;27.956;2023-07-31T12:55:57;5.10;;;4.05;;
18695;SDS011;22617;43.690;27.956;2023-07-31T13:01:00;7.18;;;4.10;;
18695;SDS011;22617;43.690;27.956;2023-07-31T13:06:04;4.72;;;4.18;;
18695;SDS011;22617;43.690;27.956;2023-07-31T13:11:10;4.95;;;3.97;;
18695;SDS011;22617;43.690;27.956;2023-07-31T13:16:13;5.70;;;4.10;;
18695;SDS011;22617;43.690;27.956;2023-07-31T13:21:17;5.03;;;4.28;;
18695;SDS011;22617;43.690;27.956;2023-07-31T13:26:22;5.82;;;4.65;;
18695;SDS011;22617;43.690;27.956;2023-07-31T13:31:25;5.57;;;4.55;;
18695;SDS011;22617;43.690;27.956;2023-07-31T13:36:29;6.38;;;4.90;;
18695;SDS011;22617;43.690;27.956;2023-07-31T13:41:35;4.88;;;4.38;;
18695;SDS011;22617;43.690;27.956;2023-07-31T13:46:39;5.60;;;4.30;;
18695;SDS011;22617;43.690;27.956;2023-07-31T13:51:43;5.22;;;4.05;;
18695;SDS011;22617;43.690;27.956;2023-07-31T13:56:48;6.13;;;4.32;;
18695;SDS011;22617;43.690;27.956;2023-07-31T14:01:51;4.72;;;4.22;;
18695;SDS011;22617;43.690;27.956;2023-07-31T14:06:55;5.47;;;4.65;;
18695;SDS011;22617;43.690;27.956;2023-07-31T14:12:01;4.90;;;4.15;;
18695;SDS011;22617;43.690;27.956;2023-07-31T14:17:05;4.90;;;4.25;;
18695;SDS011;22617;43.690;27.956;2023-07-31T14:22:08;4.13;;;3.53;;
18695;SDS011;22617;43.690;27.956;2023-07-31T14:27:14;5.88;;;4.32;;
18695;SDS011;22617;43.690;27.956;2023-07-31T14:32:17;4.65;;;4.00;;
18695;SDS011;22617;43.690;27.956;2023-07-31T14:37:21;5.15;;;4.55;;
18695;SDS011;22617;43.690;27.956;2023-07-31T14:42:26;5.25;;;4.60;;
18695;SDS011;22617;43.690;27.956;2023-07-31T14:47:29;4.40;;;3.97;;
18695;SDS011;22617;43.690;27.956;2023-07-31T14:52:34;4.40;;;3.78;;
18695;SDS011;22617;43.690;27.956;2023-07-31T14:57:39;4.82;;;4.28;;
18695;SDS011;22617;43.690;27.956;2023-07-31T15:02:42;3.90;;;3.50;;
18695;SDS011;22617;43.690;27.956;2023-07-31T15:07:46;4.30;;;3.78;;
18695;SDS011;22617;43.690;27.956;2023-07-31T15:12:51;5.63;;;4.35;;
18695;SDS011;22617;43.690;27.956;2023-07-31T15:17:54;4.50;;;3.85;;
18695;SDS011;22617;43.690;27.956;2023-07-31T15:22:58;4.53;;;3.83;;
18695;SDS011;22617;43.690;27.956;2023-07-31T15:28:03;5.43;;;3.72;;
18695;SDS011;22617;43.690;27.956;2023-07-31T15:33:09;4.90;;;3.85;;
18695;SDS011;22617;43.690;27.956;2023-07-31T15:38:12;4.32;;;3.92;;
18695;SDS011;22617;43.690;27.956;2023-07-31T15:43:17;4.22;;;3.78;;
18695;SDS011;22617;43.690;27.956;2023-07-31T15:48:22;4.80;;;4.30;;
18695;SDS011;22617;43.690;27.956;2023-07-31T15:53:25;4.82;;;4.22;;
18695;SDS011;22617;43.690;27.956;2023-07-31T15:58:31;6.60;;;4.10;;
18695;SDS011;22617;43.690;27.956;2023-07-31T16:03:34;5.63;;;4.13;;
18695;SDS011;22617;43.690;27.956;2023-07-31T16:08:38;8.73;;;4.82;;
18695;SDS011;22617;43.690;27.956;2023-07-31T16:13:44;4.38;;;3.97;;
18695;SDS011;22617;43.690;27.956;2023-07-31T16:18:48;4.38;;;3.92;;
18695;SDS011;22617;43.690;27.956;2023-07-31T16:23:51;5.55;;;4.45;;
18695;SDS011;22617;43.690;27.956;2023-07-31T16:28:56;5.10;;;3.92;;
18695;SDS011;22617;43.690;27.956;2023-07-31T16:34:00;4.65;;;4.22;;
18695;SDS011;22617;43.690;27.956;2023-07-31T16:39:03;4.57;;;4.07;;
18695;SDS011;22617;43.690;27.956;2023-07-31T16:44:09;6.65;;;3.72;;
18695;SDS011;22617;43.690;27.956;2023-07-31T16:49:16;5.47;;;4.10;;
18695;SDS011;22617;43.690;27.956;2023-07-31T16:54:20;4.47;;;3.40;;
18695;SDS011;22617;43.690;27.956;2023-07-31T16:59:25;4.72;;;3.97;;
18695;SDS011;22617;43.690;27.956;2023-07-31T17:04:29;5.00;;;3.97;;
18695;SDS011;22617;43.690;27.956;2023-07-31T17:09:33;6.38;;;4.30;;
18695;SDS011;22617;43.690;27.956;2023-07-31T17:14:38;4.47;;;3.90;;
18695;SDS011;22617;43.690;27.956;2023-07-31T17:19:42;5.15;;;4.00;;
18695;SDS011;22617;43.690;27.956;2023-07-31T17:24:45;4.63;;;3.67;;
18695;SDS011;22617;43.690;27.956;2023-07-31T17:29:50;5.53;;;3.65;;
18695;SDS011;22617;43.690;27.956;2023-07-31T17:34:54;4.32;;;3.53;;
18695;SDS011;22617;43.690;27.956;2023-07-31T17:39:57;4.43;;;3.88;;
18695;SDS011;22617;43.690;27.956;2023-07-31T17:45:03;7.28;;;4.60;;
18695;SDS011;22617;43.690;27.956;2023-07-31T17:50:08;6.55;;;4.30;;
18695;SDS011;22617;43.690;27.956;2023-07-31T17:55:12;4.50;;;4.00;;
18695;SDS011;22617;43.690;27.956;2023-07-31T18:00:19;6.18;;;3.80;;
18695;SDS011;22617;43.690;27.956;2023-07-31T18:05:24;4.30;;;3.90;;
18695;SDS011;22617;43.690;27.956;2023-07-31T18:10:28;4.25;;;3.85;;
18695;SDS011;22617;43.690;27.956;2023-07-31T18:15:33;7.25;;;4.82;;
18695;SDS011;22617;43.690;27.956;2023-07-31T18:20:37;4.80;;;4.28;;
18695;SDS011;22617;43.690;27.956;2023-07-31T18:25:40;4.72;;;4.30;;
18695;SDS011;22617;43.690;27.956;2023-07-31T18:30:45;5.07;;;4.32;;
18695;SDS011;22617;43.690;27.956;2023-07-31T18:35:49;6.80;;;4.75;;
18695;SDS011;22617;43.690;27.956;2023-07-31T18:40:52;5.82;;;4.75;;
18695;SDS011;22617;43.690;27.956;2023-07-31T18:45:58;7.28;;;5.47;;
18695;SDS011;22617;43.690;27.956;2023-07-31T18:51:01;8.38;;;5.53;;
18695;SDS011;22617;43.690;27.956;2023-07-31T18:56:05;9.68;;;6.97;;
18695;SDS011;22617;43.690;27.956;2023-07-31T19:01:10;14.45;;;8.43;;
18695;SDS011;22617;43.690;27.956;2023-07-31T19:06:15;14.30;;;8.70;;
18695;SDS011;22617;43.690;27.956;2023-07-31T19:11:18;12.27;;;7.50;;
18695;SDS011;22617;43.690;27.956;2023-07-31T19:16:35;16.88;;;8.80;;
18695;SDS011;22617;43.690;27.956;2023-07-31T19:21:39;18.13;;;8.80;;
18695;SDS011;22617;43.690;27.956;2023-07-31T19:26:45;16.38;;;8.20;;
18695;SDS011;22617;43.690;27.956;2023-07-31T19:31:50;14.93;;;7.45;;
18695;SDS011;22617;43.690;27.956;2023-07-31T19:36:54;10.98;;;6.28;;
18695;SDS011;22617;43.690;27.956;2023-07-31T19:41:57;13.45;;;7.07;;
18695;SDS011;22617;43.690;27.956;2023-07-31T19:47:04;12.07;;;7.10;;
18695;SDS011;22617;43.690;27.956;2023-07-31T19:52:07;11.77;;;6.53;;
18695;SDS011;22617;43.690;27.956;2023-07-31T19:57:11;9.73;;;6.28;;
18695;SDS011;22617;43.690;27.956;2023-07-31T20:02:16;11.43;;;5.88;;
18695;SDS011;22617;43.690;27.956;2023-07-31T20:07:19;10.43;;;5.45;;
18695;SDS011;22617;43.690;27.956;2023-07-31T20:12:23;10.70;;;6.03;;
18695;SDS011;22617;43.690;27.956;2023-07-31T20:17:29;9.27;;;5.28;;
18695;SDS011;22617;43.690;27.956;2023-07-31T20:22:34;7.80;;;5.53;;
18695;SDS011;22617;43.690;27.956;2023-07-31T20:27:37;11.27;;;6.28;;
18695;SDS011;22617;43.690;27.956;2023-07-31T20:32:42;9.02;;;5.05;;
18695;SDS011;22617;43.690;27.956;2023-07-31T20:37:46;11.52;;;6.25;;
18695;SDS011;22617;43.690;27.956;2023-07-31T20:42:56;11.70;;;5.88;;
18695;SDS011;22617;43.690;27.956;2023-07-31T20:48:02;10.02;;;6.07;;
18695;SDS011;22617;43.690;27.956;2023-07-31T20:53:06;7.90;;;5.60;;
18695;SDS011;22617;43.690;27.956;2023-07-31T20:58:10;10.43;;;6.03;;
18695;SDS011;22617;43.690;27.956;2023-07-31T21:03:14;10.65;;;5.57;;
18695;SDS011;22617;43.690;27.956;2023-07-31T21:08:18;9.70;;;6.32;;
18695;SDS011;22617;43.690;27.956;2023-07-31T21:13:22;11.82;;;5.45;;
18695;SDS011;22617;43.690;27.956;2023-07-31T21:18:28;8.07;;;7.15;;
18695;SDS011;22617;43.690;27.956;2023-07-31T21:23:32;6.97;;;5.18;;
18695;SDS011;22617;43.690;27.956;2023-07-31T21:28:35;8.93;;;6.05;;
18695;SDS011;22617;43.690;27.956;2023-07-31T21:33:41;6.20;;;5.05;;
18695;SDS011;22617;43.690;27.956;2023-07-31T21:38:44;8.82;;;5.47;;
18695;SDS011;22617;43.690;27.956;2023-07-31T21:43:48;8.13;;;6.85;;
18695;SDS011;22617;43.690;27.956;2023-07-31T21:48:53;8.77;;;6.25;;
18695;SDS011;22617;43.690;27.956;2023-07-31T21:53:56;7.10;;;5.90;;
18695;SDS011;22617;43.690;27.956;2023-07-31T21:59:00;8.63;;;6.30;;
18695;SDS011;22617;43.690;27.956;2023-07-31T22:04:05;7.97;;;6.10;;
18695;SDS011;22617;43.690;27.956;2023-07-31T22:09:08;6.65;;;5.70;;
18695;SDS011;22617;43.690;27.956;2023-07-31T22:14:12;8.25;;;6.70;;
18695;SDS011;22617;43.690;27.956;2023-07-31T22:19:17;8.00;;;6.07;;
18695;SDS011;22617;43.690;27.956;2023-07-31T22:24:20;7.53;;;5.75;;
18695;SDS011;22617;43.690;27.956;2023-07-31T22:29:24;5.93;;;5.25;;
18695;SDS011;22617;43.690;27.956;2023-07-31T22:34:29;5.43;;;4.90;;
18695;SDS011;22617;43.690;27.956;2023-07-31T22:39:32;8.45;;;6.25;;
18695;SDS011;22617;43.690;27.956;2023-07-31T22:44:37;9.07;;;6.63;;
18695;SDS011;22617;43.690;27.956;2023-07-31T22:49:42;8.57;;;5.50;;
18695;SDS011;22617;43.690;27.956;2023-07-31T22:54:46;8.23;;;6.47;;
18695;SDS011;22617;43.690;27.956;2023-07-31T22:59:51;10.85;;;6.45;;
18695;SDS011;22617;43.690;27.956;2023-07-31T23:04:56;8.82;;;6.22;;
18695;SDS011;22617;43.690;27.956;2023-07-31T23:10:00;9.35;;;6.30;;
18695;SDS011;22617;43.690;27.956;2023-07-31T23:15:04;7.85;;;5.97;;
18695;SDS011;22617;43.690;27.956;2023-07-31T23:20:10;7.03;;;5.78;;
18695;SDS011;22617;43.690;27.956;2023-07-31T23:25:14;9.52;;;6.78;;
18695;SDS011;22617;43.690;27.956;2023-07-31T23:30:18;8.13;;;6.40;;
18695;SDS011;22617;43.690;27.956;2023-07-31T23:35:23;9.60;;;7.03;;
18695;SDS011;22617;43.690;27.956;2023-07-31T23:40:30;7.55;;;5.63;;
18695;SDS011;22617;43.690;27.956;2023-07-31T23:45:34;9.20;;;5.85;;
18695;SDS011;22617;43.690;27.956;2023-07-31T23:50:39;7.50;;;5.80;;
18695;SDS011;22617;43.690;27.956;2023-07-31T23:55:43;6.60;;;5.60;;
